createdAt,value
2023-01-04T00:02:02.922Z,12.42
2023-01-04T00:04:31.048Z,12.40
2023-01-04T00:06:59.658Z,12.41
2023-01-04T00:09:28.099Z,12.40
2023-01-04T00:11:56.171Z,12.38
2023-01-04T00:14:24.287Z,12.40
2023-01-04T00:16:52.347Z,12.40
2023-01-04T00:19:21.949Z,12.38
2023-01-04T00:21:50.064Z,12.37
2023-01-04T00:24:18.842Z,12.34
2023-01-04T00:26:46.993Z,12.34
2023-01-04T00:29:15.646Z,12.32
2023-01-04T00:31:46.972Z,12.31
2023-01-04T00:34:17.026Z,12.28
2023-01-04T00:36:46.852Z,12.30
2023-01-04T00:39:17.087Z,12.34
2023-01-04T00:42:02.949Z,12.36
2023-01-04T00:44:31.481Z,12.35
2023-01-04T00:47:00.547Z,12.36
2023-01-04T00:49:29.609Z,12.33
2023-01-04T00:51:59.745Z,12.33
2023-01-04T00:54:27.903Z,12.30
2023-01-04T00:56:56.176Z,12.25
2023-01-04T00:59:24.748Z,12.26
2023-01-04T01:01:53.270Z,12.25
2023-01-04T01:04:23.697Z,12.23
2023-01-04T01:06:52.886Z,12.24
2023-01-04T01:09:24.519Z,12.23
2023-01-04T01:11:54.097Z,12.23
2023-01-04T01:14:25.254Z,12.19
2023-01-04T01:16:57.773Z,12.19
2023-01-04T01:19:27.983Z,12.21
2023-01-04T01:21:57.353Z,12.19
2023-01-04T01:24:27.879Z,12.17
2023-01-04T01:26:56.044Z,12.12
2023-01-04T01:29:24.494Z,12.11
2023-01-04T01:31:52.899Z,12.10
2023-01-04T01:34:21.302Z,12.10
2023-01-04T01:36:49.500Z,12.09
2023-01-04T01:39:17.777Z,12.06
2023-01-04T01:41:47.505Z,12.05
2023-01-04T01:45:06.919Z,12.04
2023-01-04T01:47:41.397Z,12.00
2023-01-04T01:50:20.285Z,11.99
2023-01-04T01:52:50.012Z,11.97
2023-01-04T01:55:18.417Z,11.94
2023-01-04T01:57:51.867Z,11.93
2023-01-04T02:00:20.052Z,11.91
2023-01-04T02:02:55.211Z,11.92
2023-01-04T02:05:23.782Z,11.92
2023-01-04T02:07:52.248Z,11.90
2023-01-04T02:10:20.936Z,11.88
2023-01-04T02:12:52.729Z,11.89
2023-01-04T02:15:24.772Z,11.89
2023-01-04T02:18:00.702Z,11.89
2023-01-04T02:20:40.128Z,11.85
2023-01-04T02:23:45.307Z,11.81
2023-01-04T02:27:01.129Z,11.80
2023-01-04T02:30:07.543Z,11.74
2023-01-04T02:32:56.497Z,11.76
2023-01-04T02:35:31.260Z,11.76
2023-01-04T02:38:08.435Z,11.75
2023-01-04T02:40:47.092Z,11.76
2023-01-04T02:43:39.265Z,11.74
2023-01-04T02:46:12.374Z,11.74
2023-01-04T02:48:59.962Z,11.73
2023-01-04T02:51:31.093Z,11.70
2023-01-04T02:54:01.752Z,11.70
2023-01-04T02:56:51.301Z,11.73
2023-01-04T02:59:50.935Z,11.73
2023-01-04T03:02:49.290Z,11.73
2023-01-04T03:05:53.256Z,11.71
2023-01-04T03:08:31.969Z,11.69
2023-01-04T03:11:04.865Z,11.66
2023-01-04T03:13:37.888Z,11.61
2023-01-04T03:16:12.553Z,11.59
2023-01-04T03:18:45.668Z,11.58
2023-01-04T03:21:18.043Z,11.61
2023-01-04T03:24:04.956Z,11.62
2023-01-04T03:26:54.170Z,11.59
2023-01-04T03:29:44.705Z,11.61
2023-01-04T03:32:35.074Z,11.62
2023-01-04T03:35:20.913Z,11.65
2023-01-04T03:38:15.240Z,11.63
2023-01-04T03:41:05.161Z,11.62
2023-01-04T03:43:58.511Z,11.65
2023-01-04T03:46:50.946Z,11.65
2023-01-04T03:49:26.690Z,11.67
2023-01-04T03:51:59.467Z,11.69
2023-01-04T03:54:33.397Z,11.74
2023-01-04T03:57:02.796Z,11.78
2023-01-04T03:59:31.145Z,11.82
2023-01-04T04:01:59.912Z,11.85
2023-01-04T04:04:45.359Z,11.85
2023-01-04T04:07:31.013Z,11.85
2023-01-04T04:10:00.632Z,11.84
2023-01-04T04:12:29.137Z,11.85
2023-01-04T04:14:57.594Z,11.87
2023-01-04T04:17:26.370Z,11.87
2023-01-04T04:19:54.566Z,11.91
2023-01-04T04:22:22.741Z,11.91
2023-01-04T04:24:50.969Z,11.92
2023-01-04T04:27:20.430Z,11.92
2023-01-04T04:29:48.718Z,11.92
2023-01-04T04:32:16.956Z,11.97
2023-01-04T04:34:45.014Z,11.99
2023-01-04T04:37:13.193Z,11.98
2023-01-04T04:39:41.283Z,11.97
2023-01-04T04:42:09.248Z,11.97
2023-01-04T04:44:38.966Z,11.97
2023-01-04T04:47:07.097Z,11.95
2023-01-04T04:49:35.300Z,11.92
2023-01-04T04:52:03.602Z,11.89
2023-01-04T04:54:31.815Z,11.82
2023-01-04T04:57:00.077Z,11.82
2023-01-04T04:59:28.229Z,11.76
2023-01-04T05:01:57.952Z,11.75
2023-01-04T05:04:26.474Z,11.72
2023-01-04T05:06:54.890Z,11.72
2023-01-04T05:09:23.089Z,11.69
2023-01-04T05:12:10.592Z,11.66
2023-01-04T05:14:38.825Z,11.66
2023-01-04T05:17:08.479Z,11.62
2023-01-04T05:19:36.789Z,11.61
2023-01-04T05:22:04.967Z,11.59
2023-01-04T05:24:33.113Z,11.57
2023-01-04T05:27:01.360Z,11.55
2023-01-04T05:29:47.051Z,11.49
2023-01-04T05:32:16.634Z,11.50
2023-01-04T05:34:45.180Z,11.47
2023-01-04T05:37:13.623Z,11.45
2023-01-04T05:39:41.752Z,11.44
2023-01-04T05:42:32.811Z,11.42
2023-01-04T05:45:00.938Z,11.43
2023-01-04T05:47:30.827Z,11.43
2023-01-04T05:49:59.035Z,11.41
2023-01-04T05:52:27.624Z,11.38
2023-01-04T05:54:56.015Z,11.38
2023-01-04T05:57:24.275Z,11.39
2023-01-04T05:59:52.462Z,11.42
2023-01-04T06:02:23.749Z,11.45
2023-01-04T06:04:58.824Z,11.42
2023-01-04T06:07:27.598Z,11.49
2023-01-04T06:09:56.160Z,11.50
2023-01-04T06:12:24.207Z,11.49
2023-01-04T06:14:52.607Z,11.48
2023-01-04T06:17:21.089Z,11.47
2023-01-04T06:19:49.167Z,11.47
2023-01-04T06:22:18.771Z,11.48
2023-01-04T06:24:47.051Z,11.50
2023-01-04T06:27:15.334Z,11.48
2023-01-04T06:29:43.532Z,11.47
2023-01-04T06:32:11.980Z,11.48
2023-01-04T06:34:40.165Z,11.49
2023-01-04T06:37:09.936Z,11.49
2023-01-04T06:39:39.593Z,11.49
2023-01-04T06:42:28.607Z,11.47
2023-01-04T06:44:56.842Z,11.41
2023-01-04T06:47:27.423Z,11.40
2023-01-04T06:49:55.867Z,11.37
2023-01-04T06:52:24.132Z,11.35
2023-01-04T06:54:53.666Z,11.30
2023-01-04T06:57:21.823Z,11.35
2023-01-04T06:59:50.023Z,11.38
2023-01-04T07:02:18.393Z,11.38
2023-01-04T07:04:46.789Z,11.36
2023-01-04T07:07:15.016Z,11.33
2023-01-04T07:09:43.234Z,11.39
2023-01-04T07:12:12.775Z,11.37
2023-01-04T07:14:41.006Z,11.35
2023-01-04T07:17:09.274Z,11.32
2023-01-04T07:19:37.413Z,11.35
2023-01-04T07:22:05.540Z,11.36
2023-01-04T07:24:33.698Z,11.36
2023-01-04T07:27:02.115Z,11.35
2023-01-04T07:29:31.659Z,11.33
2023-01-04T07:31:59.776Z,11.30
2023-01-04T07:34:28.538Z,11.30
2023-01-04T07:36:56.801Z,11.30
2023-01-04T07:39:25.048Z,11.34
2023-01-04T07:41:53.389Z,11.30
2023-01-04T07:44:21.979Z,11.29
2023-01-04T07:46:51.578Z,11.30
2023-01-04T07:49:19.904Z,11.32
2023-01-04T07:51:49.166Z,11.36
2023-01-04T07:54:18.256Z,11.30
2023-01-04T07:56:47.486Z,11.29
2023-01-04T07:59:17.645Z,11.27
2023-01-04T08:01:46.423Z,11.29
2023-01-04T08:04:17.349Z,11.27
2023-01-04T08:06:47.361Z,11.24
2023-01-04T08:09:15.582Z,11.26
2023-01-04T08:11:43.681Z,11.24
2023-01-04T08:14:12.567Z,11.23
2023-01-04T08:16:43.734Z,11.23
2023-01-04T08:19:17.729Z,11.19
2023-01-04T08:21:46.668Z,11.25
2023-01-04T08:24:16.899Z,11.24
2023-01-04T08:26:45.661Z,11.25
2023-01-04T08:29:14.440Z,11.28
2023-01-04T08:31:42.702Z,11.28
2023-01-04T08:34:11.301Z,11.30
2023-01-04T08:36:48.712Z,11.29
2023-01-04T08:39:16.965Z,11.27
2023-01-04T08:42:09.960Z,11.25
2023-01-04T08:44:42.181Z,11.26
2023-01-04T08:47:10.514Z,11.22
2023-01-04T08:49:38.649Z,11.24
2023-01-04T08:52:09.354Z,11.21
2023-01-04T08:54:37.637Z,11.19
2023-01-04T08:57:06.292Z,11.18
2023-01-04T08:59:34.427Z,11.23
2023-01-04T09:02:05.758Z,11.27
2023-01-04T09:04:34.562Z,11.32
2023-01-04T09:07:02.835Z,11.33
2023-01-04T09:09:32.469Z,11.33
2023-01-04T09:12:00.754Z,11.36
2023-01-04T09:14:29.018Z,11.38
2023-01-04T09:16:57.351Z,11.40
2023-01-04T09:19:25.521Z,11.41
2023-01-04T09:21:53.820Z,11.37
2023-01-04T09:24:22.147Z,11.37
2023-01-04T09:26:51.775Z,11.39
2023-01-04T09:29:19.986Z,11.40
2023-01-04T09:31:48.398Z,11.40
2023-01-04T09:34:18.028Z,11.37
2023-01-04T09:36:47.349Z,11.40
2023-01-04T09:39:22.433Z,11.43
2023-01-04T09:41:58.256Z,11.44
2023-01-04T09:45:21.474Z,11.45
2023-01-04T09:47:35.754Z,11.43
2023-01-04T09:50:07.950Z,11.48
2023-01-04T09:52:47.780Z,11.51
2023-01-04T09:55:37.850Z,11.55
2023-01-04T09:58:20.708Z,11.52
2023-01-04T10:00:52.670Z,11.50
2023-01-04T10:03:26.141Z,11.58
2023-01-04T10:05:56.473Z,11.61
2023-01-04T10:08:25.299Z,11.58
2023-01-04T10:11:09.210Z,11.60
2023-01-04T10:13:56.621Z,11.59
2023-01-04T10:22:39.519Z,11.67
2023-01-04T10:25:25.049Z,11.68
2023-01-04T10:28:06.096Z,11.75
2023-01-04T10:30:43.616Z,11.78
2023-01-04T10:33:15.054Z,11.84
2023-01-04T10:35:46.114Z,11.87
2023-01-04T10:38:18.143Z,11.94
2023-01-04T10:40:48.897Z,11.96
2023-01-04T10:43:30.840Z,12.03
2023-01-04T10:46:23.682Z,12.09
2023-01-04T10:48:56.425Z,12.26
2023-01-04T10:51:31.637Z,12.24
2023-01-04T10:54:06.312Z,12.31
2023-01-04T10:56:39.440Z,12.43
2023-01-04T10:59:14.691Z,12.47
2023-01-04T11:01:51.500Z,12.49
2023-01-04T11:04:25.089Z,12.52
2023-01-04T11:06:58.056Z,12.51
2023-01-04T11:09:34.528Z,12.52
2023-01-04T11:12:04.035Z,12.61
2023-01-04T11:14:37.236Z,12.59
2023-01-04T11:17:10.832Z,12.71
2023-01-04T11:19:40.437Z,12.76
2023-01-04T11:22:17.226Z,12.79
2023-01-04T11:25:32.575Z,12.85
2023-01-04T11:27:43.430Z,12.82
2023-01-04T11:30:18.577Z,12.90
2023-01-04T11:32:55.134Z,12.90
2023-01-04T11:35:42.728Z,12.82
2023-01-04T11:38:14.732Z,12.75
2023-01-04T11:40:43.320Z,12.71
2023-01-04T11:43:19.864Z,12.69
2023-01-04T11:46:06.034Z,12.75
2023-01-04T11:48:41.531Z,12.81
2023-01-04T11:51:22.620Z,12.78
2023-01-04T11:53:59.374Z,12.84
2023-01-04T11:56:29.464Z,12.93
2023-01-04T11:59:07.339Z,13.02
2023-01-04T12:01:38.181Z,13.05
2023-01-04T12:04:12.598Z,12.89
2023-01-04T12:06:45.353Z,12.85
2023-01-04T12:09:16.142Z,12.85
2023-01-04T12:11:50.042Z,12.85
2023-01-04T12:14:27.916Z,12.90
2023-01-04T12:17:05.603Z,12.90
2023-01-04T12:19:36.761Z,12.93
2023-01-04T12:22:18.611Z,12.88
2023-01-04T12:24:48.186Z,12.86
2023-01-04T12:27:17.747Z,12.79
2023-01-04T12:29:55.595Z,12.73
2023-01-04T12:32:46.234Z,12.66
2023-01-04T12:35:59.544Z,12.54
2023-01-04T12:39:01.036Z,12.48
2023-01-04T12:42:22.252Z,12.43
2023-01-04T12:45:22.130Z,12.42
2023-01-04T12:48:11.932Z,12.47
2023-01-04T12:51:31.765Z,12.46
2023-01-04T12:54:05.703Z,12.49
2023-01-04T12:57:24.936Z,12.49
2023-01-04T12:59:58.379Z,12.55
2023-01-04T13:02:27.799Z,12.54
2023-01-04T13:05:25.728Z,12.54
2023-01-04T13:07:47.915Z,12.61
2023-01-04T13:10:33.609Z,12.63
2023-01-04T13:13:22.548Z,12.66
2023-01-04T13:16:03.348Z,12.71
2023-01-04T13:18:37.978Z,12.82
2023-01-04T13:21:12.999Z,12.85
2023-01-04T13:23:47.068Z,12.89
2023-01-04T13:26:50.367Z,12.88
2023-01-04T13:29:21.786Z,12.85
2023-01-04T13:32:01.506Z,12.77
2023-01-04T13:34:33.425Z,12.83
2023-01-04T13:37:09.200Z,12.77
2023-01-04T13:39:39.461Z,12.76
2023-01-04T13:42:17.530Z,12.70
2023-01-04T13:45:21.596Z,12.61
2023-01-04T13:47:53.345Z,12.61
2023-01-04T13:50:28.676Z,12.54
2023-01-04T13:53:06.408Z,12.53
2023-01-04T13:55:37.851Z,12.52
2023-01-04T13:58:16.402Z,12.49
2023-01-04T14:00:47.096Z,12.50
2023-01-04T14:03:41.675Z,12.52
2023-01-04T14:06:16.225Z,12.54
2023-01-04T14:08:50.848Z,12.50
2023-01-04T14:11:41.165Z,12.52
2023-01-04T14:14:33.678Z,12.41
2023-01-04T14:17:17.435Z,12.40
2023-01-04T14:19:49.071Z,12.41
2023-01-04T14:22:28.108Z,12.31
2023-01-04T14:25:08.515Z,12.30
2023-01-04T14:27:39.363Z,12.34
2023-01-04T14:30:25.114Z,12.49
2023-01-04T14:32:58.139Z,12.45
2023-01-04T14:35:27.619Z,12.49
2023-01-04T14:37:56.116Z,12.55
2023-01-04T14:40:27.132Z,12.56
2023-01-04T14:42:55.884Z,12.54
2023-01-04T14:45:25.663Z,12.55
2023-01-04T14:47:53.933Z,12.56
2023-01-04T14:50:21.960Z,12.58
2023-01-04T14:52:52.688Z,12.52
2023-01-04T14:55:23.449Z,12.57
2023-01-04T14:57:51.806Z,12.51
2023-01-04T15:00:20.399Z,12.47
2023-01-04T15:02:52.095Z,12.53
2023-01-04T15:05:20.817Z,12.46
2023-01-04T15:07:49.235Z,12.45
2023-01-04T15:10:23.060Z,12.48
2023-01-04T15:12:51.696Z,12.51
2023-01-04T15:15:20.230Z,12.48
2023-01-04T15:17:50.385Z,12.49
2023-01-04T15:20:18.802Z,12.46
2023-01-04T15:22:46.912Z,12.47
2023-01-04T15:25:16.664Z,12.47
2023-01-04T15:27:44.877Z,12.49
2023-01-04T15:30:14.468Z,12.47
2023-01-04T15:32:45.311Z,12.49
2023-01-04T15:35:17.183Z,12.44
2023-01-04T15:37:50.629Z,12.48
2023-01-04T15:40:19.760Z,12.47
2023-01-04T15:42:59.943Z,12.45
2023-01-04T15:45:29.311Z,12.46
2023-01-04T15:48:03.307Z,12.49
2023-01-04T15:50:36.141Z,12.48
2023-01-04T15:53:04.313Z,12.45
2023-01-04T15:55:36.251Z,12.44
2023-01-04T15:58:04.720Z,12.36
2023-01-04T16:00:32.973Z,12.32
2023-01-04T16:03:01.377Z,12.33
2023-01-04T16:05:29.629Z,12.32
2023-01-04T16:07:59.190Z,12.11
2023-01-04T16:10:27.909Z,12.05
2023-01-04T16:12:57.127Z,12.01
2023-01-04T16:15:25.546Z,11.96
2023-01-04T16:17:53.613Z,11.94
2023-01-04T16:20:21.855Z,11.88
2023-01-04T16:22:49.987Z,11.90
2023-01-04T16:25:20.962Z,11.90
2023-01-04T16:27:49.464Z,11.86
2023-01-04T16:30:18.384Z,11.88
2023-01-04T16:32:46.506Z,11.90
2023-01-04T16:35:14.754Z,11.93
2023-01-04T16:37:43.150Z,11.90
2023-01-04T16:40:12.525Z,12.00
2023-01-04T16:42:43.064Z,11.99
2023-01-04T16:45:12.057Z,11.97
2023-01-04T16:47:42.233Z,11.87
2023-01-04T16:50:11.305Z,11.86
2023-01-04T16:52:39.997Z,11.87
2023-01-04T16:55:09.188Z,11.89
2023-01-04T16:57:37.247Z,11.89
2023-01-04T17:00:08.165Z,11.88
2023-01-04T17:02:36.412Z,11.87
2023-01-04T17:05:04.880Z,11.87
2023-01-04T17:07:33.633Z,11.84
2023-01-04T17:10:02.058Z,11.87
2023-01-04T17:12:47.957Z,11.86
2023-01-04T17:18:06.787Z,11.86
2023-01-04T17:20:37.949Z,11.86
2023-01-04T17:23:06.115Z,11.84
2023-01-04T17:25:34.579Z,11.85
2023-01-04T17:28:02.738Z,11.84
2023-01-04T17:30:32.252Z,11.80
2023-01-04T17:33:00.556Z,11.78
2023-01-04T17:35:28.813Z,11.75
2023-01-04T17:37:57.058Z,11.74
2023-01-04T17:40:25.166Z,11.75
2023-01-04T17:42:53.424Z,11.76
2023-01-04T17:45:21.817Z,11.76
2023-01-04T17:47:52.502Z,11.74
2023-01-04T17:50:22.201Z,11.75
2023-01-04T17:52:51.336Z,11.74
2023-01-04T17:55:19.973Z,11.70
2023-01-04T17:57:48.221Z,11.67
2023-01-04T18:00:16.828Z,11.65
2023-01-04T18:02:45.389Z,11.63
2023-01-04T18:05:15.147Z,11.61
2023-01-04T18:07:43.318Z,11.58
2023-01-04T18:10:26.766Z,11.59
2023-01-04T18:13:03.181Z,11.61
2023-01-04T18:15:31.438Z,11.62
2023-01-04T18:17:59.599Z,11.65
2023-01-04T18:20:29.180Z,11.70
2023-01-04T18:22:57.461Z,11.72
2023-01-04T18:25:25.951Z,11.74
2023-01-04T18:27:54.401Z,11.75
2023-01-04T18:30:22.589Z,11.72
2023-01-04T18:32:50.968Z,11.71
2023-01-04T18:35:19.195Z,11.72
2023-01-04T18:37:48.874Z,11.70
2023-01-04T18:40:17.012Z,11.69
2023-01-04T18:42:48.783Z,11.75
2023-01-04T18:45:17.929Z,11.75
2023-01-04T18:47:47.653Z,11.74
2023-01-04T18:50:16.155Z,11.78
2023-01-04T18:52:44.403Z,11.76
2023-01-04T18:55:14.068Z,11.68
2023-01-04T18:57:42.205Z,11.74
2023-01-04T19:00:11.975Z,11.75
2023-01-04T19:02:40.474Z,11.72
2023-01-04T19:05:09.213Z,11.70
2023-01-04T19:07:39.509Z,11.67
2023-01-04T19:10:08.848Z,11.62
2023-01-04T19:12:39.163Z,11.56
2023-01-04T19:15:09.324Z,11.45
2023-01-04T19:17:37.726Z,11.44
2023-01-04T19:20:06.839Z,11.40
2023-01-04T19:22:35.829Z,11.34
2023-01-04T19:25:04.057Z,11.36
2023-01-04T19:27:32.199Z,11.36
2023-01-04T19:30:01.850Z,11.45
2023-01-04T19:32:33.434Z,11.47
2023-01-04T19:35:02.047Z,11.47
2023-01-04T19:37:30.734Z,11.39
2023-01-04T19:39:59.286Z,11.32
2023-01-04T19:42:27.418Z,11.31
2023-01-04T19:44:55.566Z,11.31
2023-01-04T19:47:25.554Z,11.34
2023-01-04T19:49:53.842Z,11.40
2023-01-04T19:52:22.040Z,11.36
2023-01-04T19:54:50.241Z,11.28
2023-01-04T19:57:18.389Z,11.26
2023-01-04T19:59:46.980Z,11.22
2023-01-04T20:02:15.405Z,11.20
2023-01-04T20:04:45.191Z,11.18
2023-01-04T20:07:13.425Z,11.20
2023-01-04T20:09:41.618Z,11.18
2023-01-04T20:12:11.116Z,11.17
2023-01-04T20:14:39.496Z,11.18
2023-01-04T20:17:08.025Z,11.15
2023-01-04T20:19:36.247Z,11.14
2023-01-04T20:22:06.246Z,11.12
2023-01-04T20:24:34.729Z,11.07
2023-01-04T20:27:02.876Z,11.06
2023-01-04T20:29:31.128Z,11.06
2023-01-04T20:32:00.813Z,11.12
2023-01-04T20:34:29.376Z,11.17
2023-01-04T20:36:57.778Z,11.19
2023-01-04T20:39:27.368Z,11.25
2023-01-04T20:42:13.167Z,11.21
2023-01-04T20:44:41.250Z,11.22
2023-01-04T20:47:09.529Z,11.21
2023-01-04T20:49:37.735Z,11.22
2023-01-04T20:52:06.315Z,11.22
2023-01-04T20:54:36.304Z,11.19
2023-01-04T20:57:04.450Z,11.16
2023-01-04T20:59:34.846Z,11.13
2023-01-04T21:02:03.798Z,11.09
2023-01-04T21:04:32.339Z,11.09
2023-01-04T21:07:00.471Z,11.09
2023-01-04T21:09:28.890Z,11.10
2023-01-04T21:12:03.363Z,11.08
2023-01-04T21:14:38.160Z,11.05
2023-01-04T21:17:06.906Z,11.06
2023-01-04T21:19:35.287Z,11.04
2023-01-04T21:22:04.240Z,11.02
2023-01-04T21:24:33.357Z,10.99
2023-01-04T21:27:03.068Z,11.00
2023-01-04T21:29:31.711Z,10.99
2023-01-04T21:32:00.229Z,10.99
2023-01-04T21:34:31.671Z,10.98
2023-01-04T21:36:59.831Z,11.05
2023-01-04T21:39:28.328Z,11.07
2023-01-04T21:41:56.628Z,11.13
2023-01-04T21:44:26.769Z,11.11
2023-01-04T21:46:55.432Z,11.11
2023-01-04T21:49:23.635Z,11.13
2023-01-04T21:51:51.759Z,11.10
2023-01-04T21:54:19.963Z,11.05
2023-01-04T21:56:50.369Z,11.09
2023-01-04T21:59:18.621Z,11.07
2023-01-04T22:01:48.439Z,11.08
2023-01-04T22:04:16.733Z,11.09
2023-01-04T22:06:44.877Z,11.07
2023-01-04T22:09:13.122Z,11.06
2023-01-04T22:11:43.432Z,11.03
2023-01-04T22:14:11.692Z,11.03
2023-01-04T22:16:40.978Z,11.01
2023-01-04T22:19:14.006Z,10.99
2023-01-04T22:21:42.945Z,11.00
2023-01-04T22:24:12.721Z,10.99
2023-01-04T22:26:41.388Z,10.96
2023-01-04T22:29:10.005Z,10.97
2023-01-04T22:31:38.954Z,10.97
2023-01-04T22:34:07.344Z,10.96
2023-01-04T22:36:36.937Z,10.96
2023-01-04T22:39:06.091Z,10.97
2023-01-04T22:41:34.475Z,11.01
2023-01-04T22:44:04.733Z,11.05
2023-01-04T22:46:34.091Z,11.09
2023-01-04T22:49:02.742Z,11.07
2023-01-04T22:51:32.405Z,11.08
2023-01-04T22:54:05.807Z,11.11
2023-01-04T22:56:34.144Z,11.14
2023-01-04T22:59:02.348Z,11.18
2023-01-04T23:01:32.725Z,11.23
2023-01-04T23:04:02.760Z,11.21
2023-01-04T23:06:33.149Z,11.25
2023-01-04T23:09:05.400Z,11.28
2023-01-04T23:11:34.978Z,11.30
2023-01-04T23:14:03.683Z,11.29
2023-01-04T23:16:33.662Z,11.27
2023-01-04T23:19:02.238Z,11.26
2023-01-04T23:21:31.142Z,11.26
2023-01-04T23:24:00.025Z,11.26
2023-01-04T23:26:31.124Z,11.24
2023-01-04T23:28:59.514Z,11.24
2023-01-04T23:31:30.004Z,11.25
2023-01-04T23:33:59.949Z,11.26
2023-01-04T23:36:30.305Z,11.21
2023-01-04T23:39:00.108Z,11.18
2023-01-04T23:41:43.625Z,11.17
2023-01-04T23:44:13.526Z,11.15
2023-01-04T23:46:41.776Z,11.12
2023-01-04T23:49:10.142Z,11.11
2023-01-04T23:51:38.671Z,11.08
2023-01-04T23:54:08.469Z,11.08
2023-01-04T23:56:38.705Z,11.08
